sensor_id;sensor_type;location;lat;lon;timestamp;P1;durP1;ratioP1;P2;durP2;ratioP2
10244;SDS011;5167;52.164;10.530;2023-12-20T00:01:39;7.57;;;3.87;;
10244;SDS011;5167;52.164;10.530;2023-12-20T00:04:05;6.03;;;3.80;;
10244;SDS011;5167;52.164;10.530;2023-12-20T00:06:31;4.93;;;3.70;;
10244;SDS011;5167;52.164;10.530;2023-12-20T00:08:56;5.13;;;4.10;;
10244;SDS011;5167;52.164;10.530;2023-12-20T00:11:25;7.10;;;4.40;;
10244;SDS011;5167;52.164;10.530;2023-12-20T00:13:50;5.60;;;3.80;;
10244;SDS011;5167;52.164;10.530;2023-12-20T00:16:16;5.80;;;4.17;;
10244;SDS011;5167;52.164;10.530;2023-12-20T00:18:42;7.03;;;4.43;;
10244;SDS011;5167;52.164;10.530;2023-12-20T00:21:07;8.77;;;6.33;;
10244;SDS011;5167;52.164;10.530;2023-12-20T00:23:33;5.87;;;4.10;;
10244;SDS011;5167;52.164;10.530;2023-12-20T00:25:58;6.13;;;4.30;;
10244;SDS011;5167;52.164;10.530;2023-12-20T00:28:24;5.57;;;3.90;;
10244;SDS011;5167;52.164;10.530;2023-12-20T00:30:49;5.40;;;4.53;;
10244;SDS011;5167;52.164;10.530;2023-12-20T00:33:14;5.23;;;4.17;;
10244;SDS011;5167;52.164;10.530;2023-12-20T00:35:40;6.53;;;4.63;;
10244;SDS011;5167;52.164;10.530;2023-12-20T00:38:06;6.27;;;4.10;;
10244;SDS011;5167;52.164;10.530;2023-12-20T00:40:32;6.70;;;4.30;;
10244;SDS011;5167;52.164;10.530;2023-12-20T00:42:58;6.50;;;4.73;;
10244;SDS011;5167;52.164;10.530;2023-12-20T00:45:23;5.90;;;5.03;;
10244;SDS011;5167;52.164;10.530;2023-12-20T00:47:49;6.47;;;4.53;;
10244;SDS011;5167;52.164;10.530;2023-12-20T00:50:14;6.13;;;4.67;;
10244;SDS011;5167;52.164;10.530;2023-12-20T00:52:40;6.00;;;4.57;;
10244;SDS011;5167;52.164;10.530;2023-12-20T00:55:05;7.10;;;5.13;;
10244;SDS011;5167;52.164;10.530;2023-12-20T00:57:31;7.13;;;5.30;;
10244;SDS011;5167;52.164;10.530;2023-12-20T00:59:56;6.47;;;5.07;;
10244;SDS011;5167;52.164;10.530;2023-12-20T01:02:22;8.47;;;5.30;;
10244;SDS011;5167;52.164;10.530;2023-12-20T01:04:47;8.97;;;5.40;;
10244;SDS011;5167;52.164;10.530;2023-12-20T01:07:13;8.07;;;5.40;;
10244;SDS011;5167;52.164;10.530;2023-12-20T01:09:38;8.17;;;5.57;;
10244;SDS011;5167;52.164;10.530;2023-12-20T01:12:04;8.07;;;5.60;;
10244;SDS011;5167;52.164;10.530;2023-12-20T01:14:29;6.87;;;5.00;;
10244;SDS011;5167;52.164;10.530;2023-12-20T01:16:55;6.83;;;4.70;;
10244;SDS011;5167;52.164;10.530;2023-12-20T01:19:20;7.50;;;4.30;;
10244;SDS011;5167;52.164;10.530;2023-12-20T01:21:46;7.53;;;4.47;;
10244;SDS011;5167;52.164;10.530;2023-12-20T01:24:12;9.87;;;5.00;;
10244;SDS011;5167;52.164;10.530;2023-12-20T01:26:37;8.83;;;4.63;;
10244;SDS011;5167;52.164;10.530;2023-12-20T01:29:03;7.13;;;4.70;;
10244;SDS011;5167;52.164;10.530;2023-12-20T01:31:28;11.37;;;4.67;;
10244;SDS011;5167;52.164;10.530;2023-12-20T01:33:53;10.77;;;4.83;;
10244;SDS011;5167;52.164;10.530;2023-12-20T01:36:19;7.47;;;4.03;;
10244;SDS011;5167;52.164;10.530;2023-12-20T01:38:44;10.43;;;4.70;;
10244;SDS011;5167;52.164;10.530;2023-12-20T01:41:10;9.93;;;4.90;;
10244;SDS011;5167;52.164;10.530;2023-12-20T01:43:35;12.87;;;4.60;;
10244;SDS011;5167;52.164;10.530;2023-12-20T01:46:01;12.73;;;5.33;;
10244;SDS011;5167;52.164;10.530;2023-12-20T01:48:28;8.30;;;4.37;;
10244;SDS011;5167;52.164;10.530;2023-12-20T01:50:54;10.40;;;5.57;;
10244;SDS011;5167;52.164;10.530;2023-12-20T01:53:21;12.23;;;6.53;;
10244;SDS011;5167;52.164;10.530;2023-12-20T01:55:48;10.27;;;5.33;;
10244;SDS011;5167;52.164;10.530;2023-12-20T01:58:17;12.40;;;6.03;;
10244;SDS011;5167;52.164;10.530;2023-12-20T02:00:43;11.43;;;5.37;;
10244;SDS011;5167;52.164;10.530;2023-12-20T02:03:09;12.03;;;5.53;;
10244;SDS011;5167;52.164;10.530;2023-12-20T02:05:35;9.53;;;4.47;;
10244;SDS011;5167;52.164;10.530;2023-12-20T02:08:02;10.33;;;4.20;;
10244;SDS011;5167;52.164;10.530;2023-12-20T02:10:28;8.73;;;4.30;;
10244;SDS011;5167;52.164;10.530;2023-12-20T02:12:54;6.10;;;4.10;;
10244;SDS011;5167;52.164;10.530;2023-12-20T02:15:20;9.23;;;4.00;;
10244;SDS011;5167;52.164;10.530;2023-12-20T02:17:46;7.77;;;3.73;;
10244;SDS011;5167;52.164;10.530;2023-12-20T02:20:13;13.10;;;3.60;;
10244;SDS011;5167;52.164;10.530;2023-12-20T02:22:38;6.60;;;3.20;;
10244;SDS011;5167;52.164;10.530;2023-12-20T02:25:04;12.10;;;2.70;;
10244;SDS011;5167;52.164;10.530;2023-12-20T02:27:30;14.33;;;3.40;;
10244;SDS011;5167;52.164;10.530;2023-12-20T02:29:55;7.40;;;3.63;;
10244;SDS011;5167;52.164;10.530;2023-12-20T02:32:21;3.00;;;2.60;;
10244;SDS011;5167;52.164;10.530;2023-12-20T02:34:50;5.87;;;2.73;;
10244;SDS011;5167;52.164;10.530;2023-12-20T02:37:16;6.57;;;2.53;;
10244;SDS011;5167;52.164;10.530;2023-12-20T02:39:42;11.17;;;3.03;;
10244;SDS011;5167;52.164;10.530;2023-12-20T02:42:07;7.63;;;2.57;;
10244;SDS011;5167;52.164;10.530;2023-12-20T02:44:33;4.50;;;2.37;;
10244;SDS011;5167;52.164;10.530;2023-12-20T02:46:59;5.97;;;2.83;;
10244;SDS011;5167;52.164;10.530;2023-12-20T02:49:24;12.73;;;3.40;;
10244;SDS011;5167;52.164;10.530;2023-12-20T02:51:49;5.93;;;1.80;;
10244;SDS011;5167;52.164;10.530;2023-12-20T02:54:15;6.07;;;2.10;;
10244;SDS011;5167;52.164;10.530;2023-12-20T02:56:41;7.03;;;2.13;;
10244;SDS011;5167;52.164;10.530;2023-12-20T02:59:06;7.03;;;1.60;;
10244;SDS011;5167;52.164;10.530;2023-12-20T03:01:33;10.03;;;2.37;;
10244;SDS011;5167;52.164;10.530;2023-12-20T03:03:59;6.60;;;1.73;;
10244;SDS011;5167;52.164;10.530;2023-12-20T03:06:25;9.10;;;2.00;;
10244;SDS011;5167;52.164;10.530;2023-12-20T03:08:50;7.53;;;2.03;;
10244;SDS011;5167;52.164;10.530;2023-12-20T03:11:16;5.03;;;1.70;;
10244;SDS011;5167;52.164;10.530;2023-12-20T03:13:41;8.57;;;2.00;;
10244;SDS011;5167;52.164;10.530;2023-12-20T03:16:10;7.30;;;1.80;;
10244;SDS011;5167;52.164;10.530;2023-12-20T03:18:36;9.83;;;2.20;;
10244;SDS011;5167;52.164;10.530;2023-12-20T03:21:01;5.63;;;1.80;;
10244;SDS011;5167;52.164;10.530;2023-12-20T03:23:27;3.43;;;2.23;;
10244;SDS011;5167;52.164;10.530;2023-12-20T03:25:55;5.67;;;1.60;;
10244;SDS011;5167;52.164;10.530;2023-12-20T03:28:21;4.47;;;2.00;;
10244;SDS011;5167;52.164;10.530;2023-12-20T03:30:47;1.67;;;1.10;;
10244;SDS011;5167;52.164;10.530;2023-12-20T03:33:13;6.43;;;1.53;;
10244;SDS011;5167;52.164;10.530;2023-12-20T03:35:39;5.30;;;1.20;;
10244;SDS011;5167;52.164;10.530;2023-12-20T03:38:04;4.10;;;1.77;;
10244;SDS011;5167;52.164;10.530;2023-12-20T03:40:30;4.50;;;1.63;;
10244;SDS011;5167;52.164;10.530;2023-12-20T03:42:55;6.27;;;1.80;;
10244;SDS011;5167;52.164;10.530;2023-12-20T03:45:20;13.60;;;3.50;;
10244;SDS011;5167;52.164;10.530;2023-12-20T03:47:46;14.77;;;4.97;;
10244;SDS011;5167;52.164;10.530;2023-12-20T03:50:12;11.43;;;4.77;;
10244;SDS011;5167;52.164;10.530;2023-12-20T03:52:38;13.77;;;5.67;;
10244;SDS011;5167;52.164;10.530;2023-12-20T03:55:03;13.70;;;4.50;;
10244;SDS011;5167;52.164;10.530;2023-12-20T03:57:29;12.13;;;3.97;;
10244;SDS011;5167;52.164;10.530;2023-12-20T03:59:55;8.03;;;2.40;;
10244;SDS011;5167;52.164;10.530;2023-12-20T04:02:20;10.07;;;2.00;;
10244;SDS011;5167;52.164;10.530;2023-12-20T04:04:45;7.13;;;2.00;;
10244;SDS011;5167;52.164;10.530;2023-12-20T04:07:11;5.47;;;1.77;;
10244;SDS011;5167;52.164;10.530;2023-12-20T04:09:36;5.27;;;1.93;;
10244;SDS011;5167;52.164;10.530;2023-12-20T04:12:02;7.23;;;2.17;;
10244;SDS011;5167;52.164;10.530;2023-12-20T04:14:28;7.50;;;1.87;;
10244;SDS011;5167;52.164;10.530;2023-12-20T04:16:53;4.50;;;1.70;;
10244;SDS011;5167;52.164;10.530;2023-12-20T04:19:19;2.77;;;1.90;;
10244;SDS011;5167;52.164;10.530;2023-12-20T04:21:44;6.90;;;1.90;;
10244;SDS011;5167;52.164;10.530;2023-12-20T04:24:10;9.57;;;2.00;;
10244;SDS011;5167;52.164;10.530;2023-12-20T04:26:35;4.10;;;1.53;;
10244;SDS011;5167;52.164;10.530;2023-12-20T04:29:01;5.50;;;1.70;;
10244;SDS011;5167;52.164;10.530;2023-12-20T04:31:27;12.80;;;1.77;;
10244;SDS011;5167;52.164;10.530;2023-12-20T04:33:52;3.50;;;1.60;;
10244;SDS011;5167;52.164;10.530;2023-12-20T04:36:18;10.40;;;1.97;;
10244;SDS011;5167;52.164;10.530;2023-12-20T04:38:43;4.77;;;1.60;;
10244;SDS011;5167;52.164;10.530;2023-12-20T04:41:09;4.13;;;1.50;;
10244;SDS011;5167;52.164;10.530;2023-12-20T04:43:34;5.33;;;1.50;;
10244;SDS011;5167;52.164;10.530;2023-12-20T04:46:00;4.93;;;1.47;;
10244;SDS011;5167;52.164;10.530;2023-12-20T04:48:25;7.03;;;1.60;;
10244;SDS011;5167;52.164;10.530;2023-12-20T04:50:50;4.37;;;1.40;;
10244;SDS011;5167;52.164;10.530;2023-12-20T04:53:16;8.47;;;1.80;;
10244;SDS011;5167;52.164;10.530;2023-12-20T04:55:41;7.07;;;1.83;;
10244;SDS011;5167;52.164;10.530;2023-12-20T04:58:07;5.17;;;1.40;;
10244;SDS011;5167;52.164;10.530;2023-12-20T05:00:32;6.33;;;1.40;;
10244;SDS011;5167;52.164;10.530;2023-12-20T05:02:58;4.07;;;1.30;;
10244;SDS011;5167;52.164;10.530;2023-12-20T05:05:23;6.73;;;1.60;;
10244;SDS011;5167;52.164;10.530;2023-12-20T05:07:49;6.93;;;1.87;;
10244;SDS011;5167;52.164;10.530;2023-12-20T05:10:14;6.13;;;2.07;;
10244;SDS011;5167;52.164;10.530;2023-12-20T05:12:40;4.30;;;1.73;;
10244;SDS011;5167;52.164;10.530;2023-12-20T05:15:06;4.73;;;1.90;;
10244;SDS011;5167;52.164;10.530;2023-12-20T05:17:32;2.93;;;2.50;;
10244;SDS011;5167;52.164;10.530;2023-12-20T05:19:57;2.40;;;1.27;;
10244;SDS011;5167;52.164;10.530;2023-12-20T05:22:23;9.87;;;1.37;;
10244;SDS011;5167;52.164;10.530;2023-12-20T05:24:48;3.47;;;1.43;;
10244;SDS011;5167;52.164;10.530;2023-12-20T05:27:14;2.00;;;1.50;;
10244;SDS011;5167;52.164;10.530;2023-12-20T05:29:39;4.40;;;1.57;;
10244;SDS011;5167;52.164;10.530;2023-12-20T05:32:05;2.87;;;1.60;;
10244;SDS011;5167;52.164;10.530;2023-12-20T05:34:31;7.63;;;2.00;;
10244;SDS011;5167;52.164;10.530;2023-12-20T05:36:57;6.30;;;1.80;;
10244;SDS011;5167;52.164;10.530;2023-12-20T05:39:23;3.97;;;1.23;;
10244;SDS011;5167;52.164;10.530;2023-12-20T05:41:48;8.00;;;1.57;;
10244;SDS011;5167;52.164;10.530;2023-12-20T05:44:14;3.47;;;1.50;;
10244;SDS011;5167;52.164;10.530;2023-12-20T05:46:40;7.90;;;2.03;;
10244;SDS011;5167;52.164;10.530;2023-12-20T05:49:05;8.73;;;1.87;;
10244;SDS011;5167;52.164;10.530;2023-12-20T05:51:31;4.70;;;2.00;;
10244;SDS011;5167;52.164;10.530;2023-12-20T05:53:57;4.50;;;2.10;;
10244;SDS011;5167;52.164;10.530;2023-12-20T05:56:23;3.50;;;1.70;;
10244;SDS011;5167;52.164;10.530;2023-12-20T05:58:48;7.87;;;2.40;;
10244;SDS011;5167;52.164;10.530;2023-12-20T06:01:14;9.87;;;2.27;;
10244;SDS011;5167;52.164;10.530;2023-12-20T06:03:42;3.00;;;2.10;;
10244;SDS011;5167;52.164;10.530;2023-12-20T06:06:07;5.83;;;2.23;;
10244;SDS011;5167;52.164;10.530;2023-12-20T06:08:33;9.40;;;2.40;;
10244;SDS011;5167;52.164;10.530;2023-12-20T06:10:59;12.23;;;4.77;;
10244;SDS011;5167;52.164;10.530;2023-12-20T06:13:25;10.20;;;2.70;;
10244;SDS011;5167;52.164;10.530;2023-12-20T06:15:51;12.57;;;2.40;;
10244;SDS011;5167;52.164;10.530;2023-12-20T06:18:17;13.93;;;2.50;;
10244;SDS011;5167;52.164;10.530;2023-12-20T06:20:42;10.20;;;2.73;;
10244;SDS011;5167;52.164;10.530;2023-12-20T06:23:08;8.93;;;2.27;;
10244;SDS011;5167;52.164;10.530;2023-12-20T06:25:33;8.77;;;2.37;;
10244;SDS011;5167;52.164;10.530;2023-12-20T06:27:59;10.97;;;2.77;;
10244;SDS011;5167;52.164;10.530;2023-12-20T06:30:24;12.90;;;2.90;;
10244;SDS011;5167;52.164;10.530;2023-12-20T06:32:52;8.30;;;2.50;;
10244;SDS011;5167;52.164;10.530;2023-12-20T06:35:18;9.07;;;2.80;;
10244;SDS011;5167;52.164;10.530;2023-12-20T06:37:44;8.73;;;2.80;;
10244;SDS011;5167;52.164;10.530;2023-12-20T06:40:10;9.07;;;2.53;;
10244;SDS011;5167;52.164;10.530;2023-12-20T06:42:36;9.43;;;2.40;;
10244;SDS011;5167;52.164;10.530;2023-12-20T06:45:01;8.57;;;2.80;;
10244;SDS011;5167;52.164;10.530;2023-12-20T06:47:27;9.57;;;3.03;;
10244;SDS011;5167;52.164;10.530;2023-12-20T06:49:53;8.80;;;1.73;;
10244;SDS011;5167;52.164;10.530;2023-12-20T06:52:18;9.10;;;2.80;;
10244;SDS011;5167;52.164;10.530;2023-12-20T06:54:44;8.47;;;2.20;;
10244;SDS011;5167;52.164;10.530;2023-12-20T06:57:09;10.10;;;2.93;;
10244;SDS011;5167;52.164;10.530;2023-12-20T06:59:38;8.60;;;3.10;;
10244;SDS011;5167;52.164;10.530;2023-12-20T07:02:05;9.80;;;2.93;;
10244;SDS011;5167;52.164;10.530;2023-12-20T07:04:30;13.40;;;2.57;;
10244;SDS011;5167;52.164;10.530;2023-12-20T07:06:56;10.40;;;2.90;;
10244;SDS011;5167;52.164;10.530;2023-12-20T07:09:25;9.20;;;2.67;;
10244;SDS011;5167;52.164;10.530;2023-12-20T07:11:53;15.17;;;3.27;;
10244;SDS011;5167;52.164;10.530;2023-12-20T07:14:18;13.33;;;3.07;;
10244;SDS011;5167;52.164;10.530;2023-12-20T07:16:44;10.83;;;3.10;;
10244;SDS011;5167;52.164;10.530;2023-12-20T07:19:09;11.70;;;2.90;;
10244;SDS011;5167;52.164;10.530;2023-12-20T07:21:35;24.17;;;4.00;;
10244;SDS011;5167;52.164;10.530;2023-12-20T07:24:00;9.83;;;2.70;;
10244;SDS011;5167;52.164;10.530;2023-12-20T07:26:26;13.60;;;3.17;;
10244;SDS011;5167;52.164;10.530;2023-12-20T07:28:51;12.77;;;3.07;;
10244;SDS011;5167;52.164;10.530;2023-12-20T07:31:17;6.53;;;2.73;;
10244;SDS011;5167;52.164;10.530;2023-12-20T07:33:42;9.83;;;2.67;;
10244;SDS011;5167;52.164;10.530;2023-12-20T07:36:08;16.00;;;3.17;;
10244;SDS011;5167;52.164;10.530;2023-12-20T07:38:33;12.30;;;2.80;;
10244;SDS011;5167;52.164;10.530;2023-12-20T07:40:59;16.73;;;2.53;;
10244;SDS011;5167;52.164;10.530;2023-12-20T07:43:24;10.20;;;3.43;;
10244;SDS011;5167;52.164;10.530;2023-12-20T07:45:50;11.10;;;2.90;;
10244;SDS011;5167;52.164;10.530;2023-12-20T07:48:15;10.53;;;3.73;;
10244;SDS011;5167;52.164;10.530;2023-12-20T07:50:41;12.10;;;3.77;;
10244;SDS011;5167;52.164;10.530;2023-12-20T07:53:07;7.87;;;3.10;;
10244;SDS011;5167;52.164;10.530;2023-12-20T07:55:32;19.67;;;4.40;;
10244;SDS011;5167;52.164;10.530;2023-12-20T07:57:59;11.90;;;3.70;;
10244;SDS011;5167;52.164;10.530;2023-12-20T08:00:25;11.33;;;3.60;;
10244;SDS011;5167;52.164;10.530;2023-12-20T08:02:50;8.47;;;3.20;;
10244;SDS011;5167;52.164;10.530;2023-12-20T08:05:16;10.70;;;3.63;;
10244;SDS011;5167;52.164;10.530;2023-12-20T08:07:41;14.20;;;3.73;;
10244;SDS011;5167;52.164;10.530;2023-12-20T08:10:07;5.53;;;2.87;;
10244;SDS011;5167;52.164;10.530;2023-12-20T08:12:33;10.47;;;2.73;;
10244;SDS011;5167;52.164;10.530;2023-12-20T08:14:59;12.90;;;2.33;;
10244;SDS011;5167;52.164;10.530;2023-12-20T08:17:24;6.40;;;2.20;;
10244;SDS011;5167;52.164;10.530;2023-12-20T08:19:50;10.23;;;2.53;;
10244;SDS011;5167;52.164;10.530;2023-12-20T08:22:16;7.27;;;2.47;;
10244;SDS011;5167;52.164;10.530;2023-12-20T08:24:41;12.60;;;2.40;;
10244;SDS011;5167;52.164;10.530;2023-12-20T08:27:07;7.90;;;2.10;;
10244;SDS011;5167;52.164;10.530;2023-12-20T08:29:34;6.40;;;2.30;;
10244;SDS011;5167;52.164;10.530;2023-12-20T08:31:59;7.60;;;1.77;;
10244;SDS011;5167;52.164;10.530;2023-12-20T08:34:25;3.87;;;1.80;;
10244;SDS011;5167;52.164;10.530;2023-12-20T08:36:51;6.87;;;2.30;;
10244;SDS011;5167;52.164;10.530;2023-12-20T08:39:16;5.23;;;2.10;;
10244;SDS011;5167;52.164;10.530;2023-12-20T08:41:42;6.43;;;1.97;;
10244;SDS011;5167;52.164;10.530;2023-12-20T08:44:08;4.27;;;2.00;;
10244;SDS011;5167;52.164;10.530;2023-12-20T08:46:34;10.87;;;2.40;;
10244;SDS011;5167;52.164;10.530;2023-12-20T08:49:00;16.30;;;2.90;;
10244;SDS011;5167;52.164;10.530;2023-12-20T08:51:26;9.70;;;2.50;;
10244;SDS011;5167;52.164;10.530;2023-12-20T08:53:51;7.87;;;2.37;;
10244;SDS011;5167;52.164;10.530;2023-12-20T08:56:17;4.07;;;2.30;;
10244;SDS011;5167;52.164;10.530;2023-12-20T08:58:43;13.77;;;2.20;;
10244;SDS011;5167;52.164;10.530;2023-12-20T09:01:09;5.80;;;2.10;;
10244;SDS011;5167;52.164;10.530;2023-12-20T09:03:35;7.70;;;2.73;;
10244;SDS011;5167;52.164;10.530;2023-12-20T09:06:00;10.50;;;2.53;;
10244;SDS011;5167;52.164;10.530;2023-12-20T09:08:25;12.00;;;2.67;;
10244;SDS011;5167;52.164;10.530;2023-12-20T09:10:51;10.23;;;3.10;;
10244;SDS011;5167;52.164;10.530;2023-12-20T09:13:17;4.57;;;2.23;;
10244;SDS011;5167;52.164;10.530;2023-12-20T09:15:42;8.77;;;2.43;;
10244;SDS011;5167;52.164;10.530;2023-12-20T09:18:08;8.40;;;2.57;;
10244;SDS011;5167;52.164;10.530;2023-12-20T09:20:33;11.60;;;2.13;;
10244;SDS011;5167;52.164;10.530;2023-12-20T09:22:59;8.80;;;2.63;;
10244;SDS011;5167;52.164;10.530;2023-12-20T09:25:24;6.77;;;2.37;;
10244;SDS011;5167;52.164;10.530;2023-12-20T09:27:51;12.60;;;2.97;;
10244;SDS011;5167;52.164;10.530;2023-12-20T09:30:17;8.77;;;2.53;;
10244;SDS011;5167;52.164;10.530;2023-12-20T09:32:43;5.47;;;2.27;;
10244;SDS011;5167;52.164;10.530;2023-12-20T09:35:08;6.97;;;2.23;;
10244;SDS011;5167;52.164;10.530;2023-12-20T09:37:34;7.40;;;2.27;;
10244;SDS011;5167;52.164;10.530;2023-12-20T09:39:59;7.70;;;2.40;;
10244;SDS011;5167;52.164;10.530;2023-12-20T09:42:38;10.10;;;2.40;;
10244;SDS011;5167;52.164;10.530;2023-12-20T09:45:11;7.60;;;2.20;;
10244;SDS011;5167;52.164;10.530;2023-12-20T09:47:39;9.97;;;2.03;;
10244;SDS011;5167;52.164;10.530;2023-12-20T09:50:05;9.37;;;2.30;;
10244;SDS011;5167;52.164;10.530;2023-12-20T09:52:32;10.57;;;2.47;;
10244;SDS011;5167;52.164;10.530;2023-12-20T09:54:59;12.70;;;2.90;;
10244;SDS011;5167;52.164;10.530;2023-12-20T09:57:26;12.63;;;2.67;;
10244;SDS011;5167;52.164;10.530;2023-12-20T09:59:52;13.10;;;3.27;;
10244;SDS011;5167;52.164;10.530;2023-12-20T10:02:17;8.40;;;2.47;;
10244;SDS011;5167;52.164;10.530;2023-12-20T10:04:48;7.17;;;2.10;;
10244;SDS011;5167;52.164;10.530;2023-12-20T10:07:14;8.47;;;2.60;;
10244;SDS011;5167;52.164;10.530;2023-12-20T10:09:40;7.37;;;2.97;;
10244;SDS011;5167;52.164;10.530;2023-12-20T10:12:07;9.13;;;2.70;;
10244;SDS011;5167;52.164;10.530;2023-12-20T10:14:33;5.93;;;2.83;;
10244;SDS011;5167;52.164;10.530;2023-12-20T10:17:05;10.10;;;2.97;;
10244;SDS011;5167;52.164;10.530;2023-12-20T10:19:31;10.77;;;3.33;;
10244;SDS011;5167;52.164;10.530;2023-12-20T10:21:58;4.13;;;2.77;;
10244;SDS011;5167;52.164;10.530;2023-12-20T10:24:24;7.47;;;3.40;;
10244;SDS011;5167;52.164;10.530;2023-12-20T10:27:00;9.27;;;3.13;;
10244;SDS011;5167;52.164;10.530;2023-12-20T10:29:36;11.53;;;3.90;;
10244;SDS011;5167;52.164;10.530;2023-12-20T10:32:22;12.90;;;3.17;;
10244;SDS011;5167;52.164;10.530;2023-12-20T10:34:54;7.90;;;3.23;;
10244;SDS011;5167;52.164;10.530;2023-12-20T10:37:20;8.40;;;3.47;;
10244;SDS011;5167;52.164;10.530;2023-12-20T10:39:48;6.87;;;2.93;;
10244;SDS011;5167;52.164;10.530;2023-12-20T10:42:15;9.70;;;3.30;;
10244;SDS011;5167;52.164;10.530;2023-12-20T10:44:42;7.47;;;3.40;;
10244;SDS011;5167;52.164;10.530;2023-12-20T10:47:08;11.37;;;3.47;;
10244;SDS011;5167;52.164;10.530;2023-12-20T10:49:36;8.17;;;3.13;;
10244;SDS011;5167;52.164;10.530;2023-12-20T10:52:04;9.10;;;3.30;;
10244;SDS011;5167;52.164;10.530;2023-12-20T10:54:31;8.27;;;3.50;;
10244;SDS011;5167;52.164;10.530;2023-12-20T10:56:57;9.27;;;3.97;;
10244;SDS011;5167;52.164;10.530;2023-12-20T10:59:23;7.97;;;3.40;;
10244;SDS011;5167;52.164;10.530;2023-12-20T11:01:50;6.07;;;2.80;;
10244;SDS011;5167;52.164;10.530;2023-12-20T11:04:19;6.33;;;3.03;;
10244;SDS011;5167;52.164;10.530;2023-12-20T11:06:54;8.63;;;3.60;;
10244;SDS011;5167;52.164;10.530;2023-12-20T11:09:31;7.70;;;3.27;;
10244;SDS011;5167;52.164;10.530;2023-12-20T11:14:48;12.30;;;3.10;;
10244;SDS011;5167;52.164;10.530;2023-12-20T11:17:16;4.97;;;3.30;;
10244;SDS011;5167;52.164;10.530;2023-12-20T11:22:17;7.60;;;3.10;;
10244;SDS011;5167;52.164;10.530;2023-12-20T11:24:44;7.03;;;3.50;;
10244;SDS011;5167;52.164;10.530;2023-12-20T11:27:12;7.67;;;3.47;;
10244;SDS011;5167;52.164;10.530;2023-12-20T11:29:38;5.43;;;3.20;;
10244;SDS011;5167;52.164;10.530;2023-12-20T11:32:50;9.13;;;3.63;;
10244;SDS011;5167;52.164;10.530;2023-12-20T11:34:51;10.57;;;3.83;;
10244;SDS011;5167;52.164;10.530;2023-12-20T11:37:19;10.33;;;3.80;;
10244;SDS011;5167;52.164;10.530;2023-12-20T11:39:45;7.10;;;3.53;;
10244;SDS011;5167;52.164;10.530;2023-12-20T11:42:20;7.97;;;3.90;;
10244;SDS011;5167;52.164;10.530;2023-12-20T11:44:46;9.70;;;3.53;;
10244;SDS011;5167;52.164;10.530;2023-12-20T11:47:12;5.93;;;3.33;;
10244;SDS011;5167;52.164;10.530;2023-12-20T11:49:38;7.03;;;3.77;;
10244;SDS011;5167;52.164;10.530;2023-12-20T11:52:05;11.13;;;3.50;;
10244;SDS011;5167;52.164;10.530;2023-12-20T11:54:30;5.93;;;4.07;;
10244;SDS011;5167;52.164;10.530;2023-12-20T11:56:56;9.00;;;3.47;;
10244;SDS011;5167;52.164;10.530;2023-12-20T11:59:22;8.00;;;3.80;;
10244;SDS011;5167;52.164;10.530;2023-12-20T12:01:48;5.23;;;3.20;;
10244;SDS011;5167;52.164;10.530;2023-12-20T12:04:15;8.70;;;3.50;;
10244;SDS011;5167;52.164;10.530;2023-12-20T12:06:42;5.20;;;3.07;;
10244;SDS011;5167;52.164;10.530;2023-12-20T12:09:08;10.70;;;3.47;;
10244;SDS011;5167;52.164;10.530;2023-12-20T12:11:33;7.70;;;3.73;;
10244;SDS011;5167;52.164;10.530;2023-12-20T12:13:59;11.90;;;3.60;;
10244;SDS011;5167;52.164;10.530;2023-12-20T12:16:25;9.77;;;3.17;;
10244;SDS011;5167;52.164;10.530;2023-12-20T12:18:57;8.60;;;3.83;;
10244;SDS011;5167;52.164;10.530;2023-12-20T12:21:23;10.33;;;4.10;;
10244;SDS011;5167;52.164;10.530;2023-12-20T12:23:49;5.93;;;3.17;;
10244;SDS011;5167;52.164;10.530;2023-12-20T12:26:15;8.77;;;4.23;;
10244;SDS011;5167;52.164;10.530;2023-12-20T12:28:41;10.87;;;4.03;;
10244;SDS011;5167;52.164;10.530;2023-12-20T12:31:07;8.27;;;3.27;;
10244;SDS011;5167;52.164;10.530;2023-12-20T12:33:33;12.23;;;4.50;;
10244;SDS011;5167;52.164;10.530;2023-12-20T12:36:00;5.77;;;2.30;;
10244;SDS011;5167;52.164;10.530;2023-12-20T12:38:26;5.57;;;1.67;;
10244;SDS011;5167;52.164;10.530;2023-12-20T12:40:52;9.43;;;2.67;;
10244;SDS011;5167;52.164;10.530;2023-12-20T12:43:19;10.83;;;3.13;;
10244;SDS011;5167;52.164;10.530;2023-12-20T12:45:45;6.67;;;2.97;;
10244;SDS011;5167;52.164;10.530;2023-12-20T12:48:10;6.57;;;2.20;;
10244;SDS011;5167;52.164;10.530;2023-12-20T12:50:36;3.83;;;2.13;;
10244;SDS011;5167;52.164;10.530;2023-12-20T12:53:01;5.13;;;1.83;;
10244;SDS011;5167;52.164;10.530;2023-12-20T12:55:27;2.00;;;1.13;;
10244;SDS011;5167;52.164;10.530;2023-12-20T12:57:53;2.00;;;1.03;;
10244;SDS011;5167;52.164;10.530;2023-12-20T13:00:19;1.67;;;1.10;;
10244;SDS011;5167;52.164;10.530;2023-12-20T13:02:44;4.80;;;1.00;;
10244;SDS011;5167;52.164;10.530;2023-12-20T13:05:10;3.40;;;1.10;;
10244;SDS011;5167;52.164;10.530;2023-12-20T13:07:36;4.63;;;1.37;;
10244;SDS011;5167;52.164;10.530;2023-12-20T13:10:02;2.37;;;1.10;;
10244;SDS011;5167;52.164;10.530;2023-12-20T13:12:28;4.00;;;1.00;;
10244;SDS011;5167;52.164;10.530;2023-12-20T13:14:54;1.47;;;1.10;;
10244;SDS011;5167;52.164;10.530;2023-12-20T13:17:20;5.07;;;1.40;;
10244;SDS011;5167;52.164;10.530;2023-12-20T13:19:45;3.47;;;1.60;;
10244;SDS011;5167;52.164;10.530;2023-12-20T13:22:11;3.43;;;1.30;;
10244;SDS011;5167;52.164;10.530;2023-12-20T13:24:37;2.80;;;1.40;;
10244;SDS011;5167;52.164;10.530;2023-12-20T13:27:02;1.70;;;1.30;;
10244;SDS011;5167;52.164;10.530;2023-12-20T13:29:28;2.03;;;1.40;;
10244;SDS011;5167;52.164;10.530;2023-12-20T13:31:53;3.73;;;1.60;;
10244;SDS011;5167;52.164;10.530;2023-12-20T13:34:19;3.33;;;1.57;;
10244;SDS011;5167;52.164;10.530;2023-12-20T13:36:44;4.73;;;1.60;;
10244;SDS011;5167;52.164;10.530;2023-12-20T13:39:12;4.83;;;1.60;;
10244;SDS011;5167;52.164;10.530;2023-12-20T13:41:38;1.87;;;1.10;;
10244;SDS011;5167;52.164;10.530;2023-12-20T13:44:03;3.30;;;1.03;;
10244;SDS011;5167;52.164;10.530;2023-12-20T13:46:29;2.33;;;1.10;;
10244;SDS011;5167;52.164;10.530;2023-12-20T13:48:55;8.17;;;1.40;;
10244;SDS011;5167;52.164;10.530;2023-12-20T13:51:20;4.67;;;1.50;;
10244;SDS011;5167;52.164;10.530;2023-12-20T13:53:46;2.30;;;1.67;;
10244;SDS011;5167;52.164;10.530;2023-12-20T13:56:13;7.93;;;2.37;;
10244;SDS011;5167;52.164;10.530;2023-12-20T13:58:39;9.90;;;2.17;;
10244;SDS011;5167;52.164;10.530;2023-12-20T14:01:06;5.47;;;2.27;;
10244;SDS011;5167;52.164;10.530;2023-12-20T14:03:32;6.60;;;2.13;;
10244;SDS011;5167;52.164;10.530;2023-12-20T14:05:58;3.13;;;1.30;;
10244;SDS011;5167;52.164;10.530;2023-12-20T14:08:23;5.70;;;2.23;;
10244;SDS011;5167;52.164;10.530;2023-12-20T14:10:49;5.37;;;2.20;;
10244;SDS011;5167;52.164;10.530;2023-12-20T14:13:15;2.77;;;1.60;;
10244;SDS011;5167;52.164;10.530;2023-12-20T14:15:40;4.47;;;1.60;;
10244;SDS011;5167;52.164;10.530;2023-12-20T14:18:06;6.23;;;2.40;;
10244;SDS011;5167;52.164;10.530;2023-12-20T14:20:33;3.83;;;1.90;;
10244;SDS011;5167;52.164;10.530;2023-12-20T14:23:03;7.67;;;2.40;;
10244;SDS011;5167;52.164;10.530;2023-12-20T14:25:29;7.43;;;2.77;;
10244;SDS011;5167;52.164;10.530;2023-12-20T14:27:56;6.00;;;2.43;;
10244;SDS011;5167;52.164;10.530;2023-12-20T14:30:21;5.87;;;2.57;;
10244;SDS011;5167;52.164;10.530;2023-12-20T14:32:47;4.00;;;2.03;;
10244;SDS011;5167;52.164;10.530;2023-12-20T14:35:13;7.93;;;2.33;;
10244;SDS011;5167;52.164;10.530;2023-12-20T14:37:39;9.30;;;2.00;;
10244;SDS011;5167;52.164;10.530;2023-12-20T14:40:08;5.13;;;1.73;;
10244;SDS011;5167;52.164;10.530;2023-12-20T14:42:41;8.37;;;2.20;;
10244;SDS011;5167;52.164;10.530;2023-12-20T14:45:08;2.67;;;1.37;;